createdAt,value
2018-06-01T00:02:12.767Z,3.30
2018-06-01T00:04:40.691Z,2.67
2018-06-01T00:07:08.613Z,2.90
2018-06-01T00:09:36.525Z,3.23
2018-06-01T00:12:04.441Z,3.00
2018-06-01T00:14:32.373Z,3.30
2018-06-01T00:17:00.314Z,3.50
2018-06-01T00:19:28.233Z,3.20
2018-06-01T00:21:56.167Z,3.13
2018-06-01T00:24:24.098Z,3.07
2018-06-01T00:26:52.026Z,4.57
2018-06-01T00:29:19.941Z,3.80
2018-06-01T00:31:47.840Z,3.13
2018-06-01T00:34:15.752Z,3.00
2018-06-01T00:36:43.675Z,2.60
2018-06-01T00:39:11.592Z,2.90
2018-06-01T00:41:39.492Z,2.40
2018-06-01T00:44:07.420Z,4.00
2018-06-01T00:46:35.364Z,2.60
2018-06-01T00:49:03.288Z,2.77
2018-06-01T00:51:31.237Z,2.47
2018-06-01T00:53:59.152Z,2.90
2018-06-01T00:56:27.068Z,4.20
2018-06-01T00:58:54.995Z,3.20
2018-06-01T01:01:22.899Z,2.43
2018-06-01T01:03:50.826Z,2.40
2018-06-01T01:06:18.734Z,2.50
2018-06-01T01:08:46.653Z,2.50
2018-06-01T01:11:14.587Z,2.63
2018-06-01T01:13:42.488Z,3.23
2018-06-01T01:16:10.429Z,2.57
2018-06-01T01:18:38.355Z,2.93
2018-06-01T01:21:06.266Z,3.63
2018-06-01T01:23:34.204Z,2.97
2018-06-01T01:26:02.123Z,2.90
2018-06-01T01:28:30.037Z,2.53
2018-06-01T01:30:57.951Z,2.50
2018-06-01T01:33:25.995Z,2.90
2018-06-01T01:35:53.894Z,2.37
2018-06-01T01:38:21.806Z,2.57
2018-06-01T01:40:58.226Z,2.97
2018-06-01T01:43:26.292Z,2.70
2018-06-01T01:45:54.178Z,2.40
2018-06-01T01:48:22.102Z,2.63
2018-06-01T01:50:50.012Z,2.80
2018-06-01T01:53:17.939Z,2.97
2018-06-01T01:55:45.848Z,2.50
2018-06-01T01:58:13.802Z,3.10
2018-06-01T02:00:41.732Z,2.33
2018-06-01T02:03:09.646Z,2.93
2018-06-01T02:05:37.560Z,2.80
2018-06-01T02:08:05.507Z,2.93
2018-06-01T02:10:33.417Z,2.73
2018-06-01T02:13:01.376Z,2.30
2018-06-01T02:15:29.275Z,2.53
2018-06-01T02:17:57.211Z,3.10
2018-06-01T02:20:25.133Z,2.83
2018-06-01T02:22:53.059Z,3.47
2018-06-01T02:25:21.065Z,2.30
2018-06-01T02:27:48.993Z,2.80
2018-06-01T02:30:16.912Z,2.67
2018-06-01T02:32:44.980Z,3.03
2018-06-01T02:35:12.894Z,3.13
2018-06-01T02:37:40.801Z,3.37
2018-06-01T02:40:08.719Z,2.80
2018-06-01T02:42:36.641Z,3.00
2018-06-01T02:45:04.566Z,2.87
2018-06-01T02:47:32.493Z,2.97
2018-06-01T02:50:00.415Z,2.70
2018-06-01T02:52:28.355Z,2.67
2018-06-01T02:54:56.259Z,2.90
2018-06-01T02:57:24.188Z,3.30
2018-06-01T02:59:52.090Z,2.60
2018-06-01T03:02:20.035Z,2.57
2018-06-01T03:04:47.928Z,2.80
2018-06-01T03:07:16.487Z,2.90
2018-06-01T03:09:44.390Z,3.27
2018-06-01T03:12:12.284Z,2.47
2018-06-01T03:14:40.201Z,3.97
2018-06-01T03:17:08.119Z,2.30
2018-06-01T03:19:36.047Z,3.23
2018-06-01T03:22:03.973Z,2.87
2018-06-01T03:24:32.068Z,3.07
2018-06-01T03:26:59.981Z,3.00
2018-06-01T03:29:27.886Z,3.80
2018-06-01T03:31:55.796Z,2.57
2018-06-01T03:34:23.715Z,3.33
2018-06-01T03:36:51.644Z,2.80
2018-06-01T03:39:19.583Z,2.80
2018-06-01T03:41:47.514Z,3.07
2018-06-01T03:44:15.414Z,2.87
2018-06-01T03:46:43.317Z,3.20
2018-06-01T03:49:11.246Z,3.23
2018-06-01T03:51:39.135Z,2.87
2018-06-01T03:54:07.068Z,3.03
2018-06-01T03:56:34.977Z,2.80
2018-06-01T03:59:02.880Z,3.43
2018-06-01T04:01:30.843Z,3.10
2018-06-01T04:03:58.730Z,3.40
2018-06-01T04:06:26.636Z,2.77
2018-06-01T04:08:54.559Z,2.73
2018-06-01T04:11:22.464Z,3.27
2018-06-01T04:13:50.367Z,3.30
2018-06-01T04:16:18.362Z,3.07
2018-06-01T04:18:46.264Z,3.23
2018-06-01T04:21:14.192Z,3.60
2018-06-01T04:23:42.104Z,3.10
2018-06-01T04:26:10.010Z,4.00
2018-06-01T04:28:37.972Z,2.83
2018-06-01T04:31:05.870Z,3.33
2018-06-01T04:33:33.786Z,3.10
2018-06-01T04:36:02.320Z,3.37
2018-06-01T04:38:30.241Z,3.47
2018-06-01T04:40:58.199Z,3.50
2018-06-01T04:43:26.136Z,2.90
2018-06-01T04:45:54.071Z,3.30
2018-06-01T04:48:22.021Z,3.30
2018-06-01T04:50:49.911Z,3.10
2018-06-01T04:53:17.962Z,3.60
2018-06-01T04:55:45.843Z,3.17
2018-06-01T04:58:13.751Z,3.63
2018-06-01T05:00:41.941Z,3.53
2018-06-01T05:03:09.859Z,3.63
2018-06-01T05:05:37.782Z,3.53
2018-06-01T05:08:05.699Z,4.60
2018-06-01T05:10:33.614Z,5.47
2018-06-01T05:13:01.543Z,3.87
2018-06-01T05:15:29.485Z,3.60
2018-06-01T05:17:57.412Z,3.83
2018-06-01T05:20:25.321Z,3.57
2018-06-01T05:22:53.261Z,3.03
2018-06-01T05:25:21.184Z,5.60
2018-06-01T05:27:49.119Z,4.20
2018-06-01T05:30:17.017Z,3.50
2018-06-01T05:32:44.964Z,3.57
2018-06-01T05:35:12.910Z,4.60
2018-06-01T05:37:40.889Z,3.70
2018-06-01T05:40:08.799Z,4.17
2018-06-01T05:42:36.746Z,4.30
2018-06-01T05:45:04.662Z,4.67
2018-06-01T05:47:32.604Z,4.70
2018-06-01T05:50:00.502Z,3.73
2018-06-01T05:52:28.441Z,4.37
2018-06-01T05:54:56.391Z,4.83
2018-06-01T05:57:24.304Z,5.27
2018-06-01T05:59:52.217Z,5.03
2018-06-01T06:02:20.125Z,4.60
2018-06-01T06:04:48.038Z,4.20
2018-06-01T06:07:15.949Z,4.73
2018-06-01T06:09:43.912Z,7.97
2018-06-01T06:12:11.855Z,4.60
2018-06-01T06:14:39.763Z,4.30
2018-06-01T06:17:07.793Z,4.67
2018-06-01T06:19:35.727Z,4.93
2018-06-01T06:22:03.673Z,5.00
2018-06-01T06:24:31.600Z,7.50
2018-06-01T06:26:59.577Z,5.63
2018-06-01T06:29:27.505Z,4.70
2018-06-01T06:31:55.448Z,5.10
2018-06-01T06:34:23.368Z,4.80
2018-06-01T06:36:51.298Z,5.00
2018-06-01T06:39:19.209Z,4.93
2018-06-01T06:41:47.131Z,5.27
2018-06-01T06:44:15.058Z,5.27
2018-06-01T06:46:42.949Z,5.73
2018-06-01T06:49:10.895Z,5.20
2018-06-01T06:51:38.822Z,7.30
2018-06-01T06:54:06.772Z,5.83
2018-06-01T06:56:34.700Z,7.23
2018-06-01T06:59:02.651Z,5.60
2018-06-01T07:01:30.561Z,5.63
2018-06-01T07:03:58.478Z,6.00
2018-06-01T07:06:26.382Z,5.83
2018-06-01T07:08:54.291Z,5.10
2018-06-01T07:11:22.240Z,6.23
2018-06-01T07:13:50.165Z,4.67
2018-06-01T07:16:18.105Z,6.13
2018-06-01T07:18:46.015Z,5.23
2018-06-01T07:21:13.972Z,5.33
2018-06-01T07:23:41.934Z,5.77
2018-06-01T07:26:09.889Z,5.67
2018-06-01T07:28:37.818Z,6.80
2018-06-01T07:31:05.715Z,5.07
2018-06-01T07:33:33.641Z,6.23
2018-06-01T07:36:01.574Z,6.03
2018-06-01T07:38:29.533Z,5.67
2018-06-01T07:40:57.469Z,5.53
2018-06-01T07:43:25.370Z,5.80
2018-06-01T07:45:53.268Z,6.17
2018-06-01T07:48:21.203Z,5.77
2018-06-01T07:50:49.115Z,4.87
2018-06-01T07:53:17.023Z,6.13
2018-06-01T07:55:44.947Z,6.20
2018-06-01T07:58:12.854Z,4.93
2018-06-01T08:00:40.790Z,5.90
2018-06-01T08:03:08.683Z,5.57
2018-06-01T08:05:36.583Z,6.00
2018-06-01T08:08:04.518Z,6.10
2018-06-01T08:10:32.440Z,5.40
2018-06-01T08:13:00.385Z,6.17
2018-06-01T08:15:28.303Z,6.00
2018-06-01T08:17:56.229Z,5.20
2018-06-01T08:20:24.148Z,6.40
2018-06-01T08:22:52.162Z,5.50
2018-06-01T08:25:20.088Z,5.47
2018-06-01T08:27:48.007Z,5.37
2018-06-01T08:30:15.954Z,6.63
2018-06-01T08:32:43.859Z,5.60
2018-06-01T08:35:11.778Z,5.67
2018-06-01T08:37:39.674Z,5.40
2018-06-01T08:40:07.611Z,6.30
2018-06-01T08:42:35.527Z,7.50
2018-06-01T08:45:03.454Z,5.60
2018-06-01T08:47:31.417Z,5.73
2018-06-01T08:49:59.467Z,5.53
2018-06-01T08:52:27.443Z,6.00
2018-06-01T08:54:55.302Z,5.80
2018-06-01T08:57:23.317Z,5.10
2018-06-01T08:59:51.265Z,5.70
2018-06-01T09:02:19.182Z,5.57
2018-06-01T09:04:47.116Z,5.53
2018-06-01T09:07:15.041Z,6.00
2018-06-01T09:09:42.997Z,5.80
2018-06-01T09:12:10.954Z,5.53
2018-06-01T09:14:38.870Z,5.90
2018-06-01T09:17:06.787Z,6.00
2018-06-01T09:19:34.721Z,6.13
2018-06-01T09:22:02.627Z,5.70
2018-06-01T09:24:30.566Z,5.17
2018-06-01T09:26:58.465Z,5.80
2018-06-01T09:29:26.391Z,6.10
2018-06-01T09:31:54.316Z,5.80
2018-06-01T09:34:22.285Z,5.80
2018-06-01T09:36:50.146Z,5.23
2018-06-01T09:39:18.066Z,5.60
2018-06-01T09:41:45.977Z,4.80
2018-06-01T09:44:13.870Z,6.20
2018-06-01T09:46:41.812Z,5.97
2018-06-01T09:49:09.729Z,4.90
2018-06-01T09:51:37.648Z,5.73
2018-06-01T09:54:05.565Z,5.30
2018-06-01T09:56:33.505Z,5.80
2018-06-01T09:59:01.407Z,5.30
2018-06-01T10:01:29.306Z,5.70
2018-06-01T10:03:57.219Z,5.33
2018-06-01T10:06:25.148Z,5.40
2018-06-01T10:08:53.125Z,5.80
2018-06-01T10:11:21.008Z,5.97
2018-06-01T10:13:48.923Z,5.50
2018-06-01T10:16:16.839Z,5.00
2018-06-01T10:18:44.819Z,5.67
2018-06-01T10:21:13.324Z,4.77
2018-06-01T10:23:41.251Z,4.83
2018-06-01T10:26:09.160Z,5.30
2018-06-01T10:28:37.074Z,5.00
2018-06-01T10:31:04.996Z,4.67
2018-06-01T10:33:32.895Z,4.60
2018-06-01T10:36:00.808Z,4.43
2018-06-01T10:38:28.714Z,4.70
2018-06-01T10:40:57.240Z,4.33
2018-06-01T10:43:25.130Z,4.37
2018-06-01T10:45:53.067Z,4.80
2018-06-01T10:48:20.982Z,4.57
2018-06-01T10:50:48.894Z,4.83
2018-06-01T10:53:16.810Z,4.80
2018-06-01T10:55:44.719Z,5.60
2018-06-01T10:58:12.635Z,5.70
2018-06-01T11:00:40.547Z,5.93
2018-06-01T11:03:08.476Z,5.27
2018-06-01T11:05:36.377Z,5.07
2018-06-01T11:08:04.325Z,5.40
2018-06-01T11:10:32.211Z,5.27
2018-06-01T11:13:00.137Z,6.17
2018-06-01T11:15:28.040Z,5.93
2018-06-01T11:17:55.999Z,5.33
2018-06-01T11:20:23.947Z,6.30
2018-06-01T11:22:51.839Z,5.70
2018-06-01T11:25:19.837Z,6.13
2018-06-01T11:27:47.730Z,7.13
2018-06-01T11:30:15.656Z,7.13
2018-06-01T11:32:43.538Z,6.60
2018-06-01T11:35:11.488Z,6.07
2018-06-01T11:37:39.383Z,6.63
2018-06-01T11:40:07.299Z,7.07
2018-06-01T11:42:35.414Z,6.90
2018-06-01T11:45:03.302Z,7.17
2018-06-01T11:47:31.296Z,5.40
2018-06-01T11:49:59.194Z,6.77
2018-06-01T11:52:27.105Z,6.53
2018-06-01T11:54:55.006Z,6.60
2018-06-01T11:57:22.911Z,6.47
2018-06-01T11:59:50.802Z,6.57
2018-06-01T12:02:18.714Z,7.40
2018-06-01T12:04:46.625Z,6.10
2018-06-01T12:07:14.569Z,7.30
2018-06-01T12:09:42.452Z,6.97
2018-06-01T12:12:10.359Z,7.10
2018-06-01T12:14:38.301Z,6.60
2018-06-01T12:17:06.217Z,6.97
2018-06-01T12:19:34.157Z,6.77
2018-06-01T12:22:02.063Z,7.30
2018-06-01T12:24:29.968Z,8.00
2018-06-01T12:26:57.890Z,7.60
2018-06-01T12:29:25.810Z,7.43
2018-06-01T12:31:53.718Z,6.90
2018-06-01T12:34:21.655Z,6.70
2018-06-01T12:36:49.582Z,7.20
2018-06-01T12:39:17.492Z,7.07
2018-06-01T12:41:45.410Z,7.33
2018-06-01T12:44:13.323Z,6.60
2018-06-01T12:46:41.256Z,7.13
2018-06-01T12:49:09.735Z,7.37
2018-06-01T12:51:37.653Z,7.80
2018-06-01T12:54:05.628Z,7.47
2018-06-01T12:56:33.507Z,8.90
2018-06-01T12:59:01.571Z,6.77
2018-06-01T13:01:29.651Z,7.00
2018-06-01T13:03:57.567Z,7.00
2018-06-01T13:06:25.518Z,7.50
2018-06-01T13:08:53.500Z,6.83
2018-06-01T13:11:21.398Z,7.43
2018-06-01T13:13:49.406Z,8.00
2018-06-01T13:16:17.315Z,6.60
2018-06-01T13:18:45.232Z,6.53
2018-06-01T13:21:13.148Z,6.97
2018-06-01T13:23:41.072Z,7.40
2018-06-01T13:26:08.989Z,7.17
2018-06-01T13:28:36.907Z,7.63
2018-06-01T13:31:04.812Z,7.40
2018-06-01T13:33:32.762Z,7.23
2018-06-01T13:36:00.804Z,8.30
2018-06-01T13:38:28.746Z,7.90
2018-06-01T13:40:56.682Z,7.23
2018-06-01T13:43:24.573Z,7.13
2018-06-01T13:45:52.556Z,7.97
2018-06-01T13:48:20.460Z,7.80
2018-06-01T13:50:48.365Z,8.70
2018-06-01T13:53:16.290Z,7.37
2018-06-01T13:55:44.218Z,8.90
2018-06-01T13:58:12.132Z,7.50
2018-06-01T14:00:40.062Z,8.03
2018-06-01T14:03:08.016Z,8.00
2018-06-01T14:05:35.953Z,7.80
2018-06-01T14:08:03.894Z,8.13
2018-06-01T14:10:31.790Z,7.97
2018-06-01T14:12:59.701Z,7.90
2018-06-01T14:15:27.699Z,8.43
2018-06-01T14:17:55.648Z,8.17
2018-06-01T14:20:23.581Z,7.53
2018-06-01T14:22:51.493Z,8.73
2018-06-01T14:25:19.415Z,9.13
2018-06-01T14:27:47.328Z,8.20
2018-06-01T14:30:15.250Z,7.60
2018-06-01T14:32:43.231Z,8.00
2018-06-01T14:35:11.218Z,7.90
2018-06-01T14:37:39.117Z,8.40
2018-06-01T14:40:07.011Z,7.57
2018-06-01T14:42:34.918Z,8.57
2018-06-01T14:45:02.896Z,8.00
2018-06-01T14:47:30.909Z,8.13
2018-06-01T14:49:58.823Z,8.87
2018-06-01T14:52:26.704Z,7.43
2018-06-01T14:54:54.619Z,8.07
2018-06-01T14:57:22.583Z,8.10
2018-06-01T14:59:50.620Z,9.03
2018-06-01T15:02:18.655Z,7.53
2018-06-01T15:04:46.628Z,9.00
2018-06-01T15:07:14.553Z,7.60
2018-06-01T15:09:42.494Z,7.70
2018-06-01T15:12:10.872Z,8.10
2018-06-01T15:14:39.216Z,7.60
2018-06-01T15:17:07.152Z,7.60
2018-06-01T15:19:35.134Z,8.27
2018-06-01T15:22:03.075Z,7.27
2018-06-01T15:24:30.980Z,7.93
2018-06-01T15:26:58.909Z,8.20
2018-06-01T15:29:26.832Z,7.43
2018-06-01T15:31:54.831Z,8.13
2018-06-01T15:34:22.719Z,8.20
2018-06-01T15:36:51.144Z,8.20
2018-06-01T15:39:19.060Z,8.10
2018-06-01T15:41:46.989Z,7.40
2018-06-01T15:44:14.974Z,6.87
2018-06-01T15:46:42.933Z,7.40
2018-06-01T15:49:10.870Z,6.40
2018-06-01T15:51:38.776Z,6.00
2018-06-01T15:54:06.760Z,6.70
2018-06-01T15:56:34.662Z,5.10
2018-06-01T15:59:02.589Z,6.13
2018-06-01T16:01:30.525Z,6.10
2018-06-01T16:03:58.577Z,6.30
2018-06-01T16:06:26.484Z,8.20
2018-06-01T16:08:54.395Z,6.50
2018-06-01T16:11:22.316Z,5.30
2018-06-01T16:13:50.225Z,6.13
2018-06-01T16:16:18.130Z,6.13
2018-06-01T16:18:47.028Z,5.37
2018-06-01T16:21:14.985Z,5.90
2018-06-01T16:23:43.708Z,5.87
2018-06-01T16:26:11.612Z,5.70
2018-06-01T16:28:39.516Z,6.10
2018-06-01T16:31:07.430Z,5.87
2018-06-01T16:33:35.344Z,6.77
2018-06-01T16:36:03.243Z,6.27
2018-06-01T16:38:31.411Z,5.20
2018-06-01T16:40:59.325Z,6.23
2018-06-01T16:43:27.236Z,5.70
2018-06-01T16:45:55.141Z,7.00
2018-06-01T16:48:23.076Z,6.10
2018-06-01T16:50:51.744Z,7.07
2018-06-01T16:53:19.689Z,6.30
2018-06-01T16:55:47.600Z,6.20
2018-06-01T16:58:15.522Z,5.90
2018-06-01T17:00:43.432Z,7.53
2018-06-01T17:03:11.363Z,6.90
2018-06-01T17:05:39.347Z,6.50
2018-06-01T17:08:07.318Z,6.70
2018-06-01T17:10:35.373Z,7.40
2018-06-01T17:13:03.299Z,7.50
2018-06-01T17:15:31.370Z,6.57
2018-06-01T17:17:59.395Z,7.13
2018-06-01T17:20:27.355Z,7.17
2018-06-01T17:22:55.279Z,8.10
2018-06-01T17:25:23.215Z,7.17
2018-06-01T17:27:51.218Z,7.70
2018-06-01T17:30:19.241Z,8.30
2018-06-01T17:32:47.272Z,7.67
2018-06-01T17:35:15.282Z,8.00
2018-06-01T17:37:43.224Z,8.30
2018-06-01T17:40:11.132Z,8.20
2018-06-01T17:42:39.099Z,8.03
2018-06-01T17:45:07.009Z,7.60
2018-06-01T17:47:35.350Z,7.70
2018-06-01T17:50:03.263Z,8.23
2018-06-01T17:52:31.194Z,8.00
2018-06-01T17:54:59.414Z,7.90
2018-06-01T17:57:27.400Z,7.80
2018-06-01T17:59:55.306Z,8.23
2018-06-01T18:02:23.231Z,7.47
2018-06-01T18:04:51.169Z,8.47
2018-06-01T18:07:19.108Z,7.67
2018-06-01T18:09:47.291Z,7.40
2018-06-01T18:12:15.201Z,7.10
2018-06-01T18:14:43.210Z,7.80
2018-06-01T18:17:11.093Z,11.87
2018-06-01T18:19:39.011Z,12.23
2018-06-01T18:22:06.974Z,7.60
2018-06-01T18:24:34.975Z,8.00
2018-06-01T18:27:02.868Z,7.00
2018-06-01T18:29:30.811Z,8.00
2018-06-01T18:31:58.700Z,7.20
2018-06-01T18:34:26.663Z,6.93
2018-06-01T18:36:54.549Z,7.60
2018-06-01T18:39:22.472Z,8.23
2018-06-01T18:41:50.493Z,8.13
2018-06-01T18:44:18.379Z,8.07
2018-06-01T18:46:46.271Z,6.30
2018-06-01T18:49:14.209Z,8.53
2018-06-01T18:51:42.180Z,7.63
2018-06-01T18:54:10.996Z,6.77
2018-06-01T18:56:38.969Z,6.80
2018-06-01T18:59:07.092Z,6.80
2018-06-01T19:01:35.004Z,7.60
2018-06-01T19:04:02.954Z,6.70
2018-06-01T19:06:31.074Z,7.23
2018-06-01T19:08:59.004Z,7.27
2018-06-01T19:11:26.915Z,7.60
2018-06-01T19:13:54.869Z,7.27
2018-06-01T19:16:22.822Z,7.40
2018-06-01T19:18:51.707Z,7.00
2018-06-01T19:21:19.656Z,7.47
2018-06-01T19:23:47.591Z,7.20
2018-06-01T19:26:15.546Z,9.17
2018-06-01T19:28:43.462Z,7.40
2018-06-01T19:31:11.401Z,7.70
2018-06-01T19:33:39.410Z,6.53
2018-06-01T19:36:07.381Z,6.77
2018-06-01T19:38:35.291Z,8.57
2018-06-01T19:41:03.264Z,7.53
2018-06-01T19:43:31.215Z,6.80
2018-06-01T19:45:59.161Z,7.30
2018-06-01T19:48:27.073Z,6.80
2018-06-01T19:50:55.052Z,6.53
2018-06-01T19:53:22.987Z,6.20
2018-06-01T19:55:50.956Z,7.27
2018-06-01T19:58:18.952Z,6.90
2018-06-01T20:00:46.881Z,7.00
2018-06-01T20:03:14.850Z,15.03
2018-06-01T20:05:43.639Z,28.43
2018-06-01T20:08:11.564Z,21.83
2018-06-01T20:10:39.495Z,18.87
2018-06-01T20:13:07.499Z,13.53
2018-06-01T20:15:35.354Z,10.43
2018-06-01T20:18:03.313Z,8.73
2018-06-01T20:20:31.248Z,13.77
2018-06-01T20:22:59.182Z,9.10
2018-06-01T20:25:27.123Z,9.93
2018-06-01T20:27:55.103Z,10.00
2018-06-01T20:30:23.081Z,6.70
2018-06-01T20:32:51.021Z,8.07
2018-06-01T20:35:18.955Z,8.10
2018-06-01T20:37:46.877Z,7.80
2018-06-01T20:40:15.466Z,7.27
2018-06-01T20:42:43.459Z,7.50
2018-06-01T20:45:11.394Z,7.97
2018-06-01T20:47:39.318Z,7.63
2018-06-01T20:50:07.346Z,7.20
2018-06-01T20:52:35.410Z,7.60
2018-06-01T20:55:03.366Z,7.50
2018-06-01T20:57:31.278Z,7.30
2018-06-01T20:59:59.217Z,8.10
2018-06-01T21:02:27.128Z,7.63
2018-06-01T21:04:55.664Z,7.67
2018-06-01T21:07:26.577Z,7.50
2018-06-01T21:09:54.536Z,7.27
2018-06-01T21:12:22.464Z,7.40
2018-06-01T21:14:50.376Z,12.60
2018-06-01T21:17:18.313Z,14.10
2018-06-01T21:19:46.228Z,10.50
2018-06-01T21:22:14.156Z,8.57
2018-06-01T21:24:42.208Z,8.53
2018-06-01T21:27:10.111Z,10.30
2018-06-01T21:29:38.042Z,8.47
2018-06-01T21:32:05.927Z,8.83
2018-06-01T21:34:33.864Z,9.10
2018-06-01T21:37:01.768Z,8.60
2018-06-01T21:39:29.842Z,9.30
2018-06-01T21:41:57.734Z,8.60
2018-06-01T21:44:25.706Z,12.80
2018-06-01T21:46:54.527Z,9.60
2018-06-01T21:49:22.449Z,11.30
2018-06-01T21:51:50.380Z,10.73
2018-06-01T21:54:18.306Z,10.80
2018-06-01T21:56:46.234Z,9.20
2018-06-01T21:59:14.217Z,8.30
2018-06-01T22:01:43.127Z,8.80
2018-06-01T22:04:11.052Z,9.70
2018-06-01T22:06:38.953Z,9.30
2018-06-01T22:09:06.854Z,9.00
2018-06-01T22:11:34.804Z,9.33
2018-06-01T22:14:02.867Z,9.30
2018-06-01T22:16:30.778Z,9.57
2018-06-01T22:18:58.686Z,8.67
2018-06-01T22:21:26.615Z,7.80
2018-06-01T22:23:54.512Z,8.57
2018-06-01T22:26:22.435Z,8.40
2018-06-01T22:28:50.352Z,7.60
2018-06-01T22:31:19.011Z,9.07
2018-06-01T22:33:46.908Z,7.80
2018-06-01T22:36:14.807Z,8.40
2018-06-01T22:38:42.745Z,8.53
2018-06-01T22:41:10.831Z,8.80
2018-06-01T22:43:38.740Z,8.23
2018-06-01T22:46:06.652Z,8.13
2018-06-01T22:48:34.554Z,8.90
2018-06-01T22:51:02.486Z,9.30
2018-06-01T22:53:30.426Z,8.33
2018-06-01T22:55:58.763Z,7.63
2018-06-01T22:58:26.734Z,7.40
2018-06-01T23:00:54.660Z,7.30
2018-06-01T23:03:22.594Z,7.53
2018-06-01T23:05:50.513Z,8.93
2018-06-01T23:08:18.426Z,8.00
2018-06-01T23:10:46.335Z,7.17
2018-06-01T23:13:14.257Z,7.27
2018-06-01T23:15:42.190Z,9.20
2018-06-01T23:18:10.162Z,7.47
2018-06-01T23:20:38.188Z,7.40
2018-06-01T23:23:06.117Z,7.53
2018-06-01T23:25:34.060Z,7.17
2018-06-01T23:28:01.979Z,7.70
2018-06-01T23:30:29.943Z,8.00
2018-06-01T23:32:57.867Z,7.80
2018-06-01T23:35:25.797Z,8.17
2018-06-01T23:37:53.748Z,8.63
2018-06-01T23:40:21.674Z,7.27
2018-06-01T23:42:49.581Z,9.40
2018-06-01T23:45:17.491Z,8.67
2018-06-01T23:47:45.423Z,7.70
2018-06-01T23:50:13.452Z,7.43
2018-06-01T23:52:41.411Z,8.23
2018-06-01T23:55:09.365Z,8.27
2018-06-01T23:57:37.254Z,8.60
